• Join FlightAware (Why Join?)
  • Login
  • US Flag 
10:22PM EST


 

Airport Tracker/Info


-or-


 

Live Flight TrackerFlight Track Log ✈ N1944E ✈ 22-Aug-2013 ✈ KJAC - KCOD

Flight Track Log - Related Links

Times and Time Zones

All times are in EDT time to prevent confusion due to time zone crossing. See the N1944E flight status page for this flight to view local times or setup timezone preferences in your user account.

Time Position Orientation Groundspeed Altitude Reporting Facility
EDT Latitude Longitude Course Direction KTS MPH feet Rate Location/Type
02:34PM 43.5542 -110.7644 198° South 148 170 8,500  Level Salt Lake Center
02:35PM 43.5647 -110.7150 74° East 151 174 9,600 1,080 Climbing Salt Lake Center
02:36PM 43.5883 -110.6547 62° Northeast 150 173 10,800 960 Climbing Salt Lake Center
02:37PM 43.7929 -110.3975 53° Northeast  Level Estimated
02:37PM 43.6158 -110.6053 52° Northeast 159 183 11,600  Level Salt Lake Center
02:38PM 43.8237 -110.3406 53° Northeast  Level Estimated
02:38PM 43.6489 -110.5569 47° Northeast 170 196 12,500  Level Salt Lake Center
02:39PM 43.6856 -110.5131 41° Northeast 174 200 13,100 900 Climbing Salt Lake Center
02:40PM 43.7222 -110.4472 52° Northeast 180 207 14,400 900 Climbing Salt Lake Center
02:41PM 43.7525 -110.3925 53° Northeast 178 205 15,000 240 Climbing Salt Lake Center
02:42PM 43.7886 -110.3308 51° Northeast 197 227 15,000  Level Salt Lake Center
02:43PM 43.8244 -110.2658 53° Northeast 209 241 15,000 -120 Level Salt Lake Center
02:44PM 43.8656 -110.1992 49° Northeast 211 243 14,800 -60 Descending Salt Lake Center
02:45PM 43.9006 -110.1372 52° Northeast 212 244 14,900  Climbing Salt Lake Center
02:46PM 43.9408 -110.0628 53° Northeast 214 246 14,900  Level Salt Lake Center
02:47PM 43.9728 -110.0006 54° Northeast 211 243 14,900  Level Salt Lake Center
02:48PM 44.0119 -109.9261 54° Northeast 213 245 14,900 -60 Level Salt Lake Center
02:49PM 44.0469 -109.8631 52° Northeast 214 246 14,800  Descending Salt Lake Center
02:50PM 44.0875 -109.7931 51° Northeast 211 243 15,000 -120 Climbing Salt Lake Center
02:51PM 44.1206 -109.7333 52° Northeast 206 237 14,600 -780 Descending Salt Lake Center
02:52PM 44.1697 -109.6625 46° Northeast 219 252 13,500 -1,080 Descending Salt Lake Center
02:54PM 44.1994 -109.5947 59° Northeast 230 265 12,400 -1,080 Descending Salt Lake Center